createdAt,value
2023-04-15T00:00:03.975Z,62.57
2023-04-15T00:03:03.703Z,62.39
2023-04-15T00:05:52.969Z,62.75
2023-04-15T00:08:43.679Z,63.24
2023-04-15T00:11:33.062Z,63.15
2023-04-15T00:14:22.345Z,63.21
2023-04-15T00:17:11.706Z,62.72
2023-04-15T00:20:02.588Z,63.03
2023-04-15T00:22:51.782Z,63.30
2023-04-15T00:25:41.863Z,63.41
2023-04-15T00:28:31.127Z,63.29
2023-04-15T00:31:20.937Z,63.55
2023-04-15T00:34:10.831Z,64.09
2023-04-15T00:37:01.803Z,63.31
2023-04-15T00:39:51.325Z,64.06
2023-04-15T00:42:41.202Z,64.46
2023-04-15T00:45:30.685Z,64.20
2023-04-15T00:48:20.182Z,64.50
2023-04-15T00:51:09.764Z,64.86
2023-04-15T00:54:01.041Z,65.21
2023-04-15T00:56:50.748Z,65.38
2023-04-15T00:59:40.222Z,65.49
2023-04-15T01:02:29.729Z,65.85
2023-04-15T01:05:19.716Z,66.28
2023-04-15T01:08:09.844Z,66.92
2023-04-15T01:11:03.870Z,66.30
2023-04-15T01:13:54.393Z,66.22
2023-04-15T01:16:45.370Z,67.01
2023-04-15T01:19:34.670Z,66.98
2023-04-15T01:22:26.768Z,66.49
2023-04-15T01:25:21.816Z,66.48
2023-04-15T01:28:12.506Z,66.81
2023-04-15T01:31:12.645Z,66.46
2023-04-15T01:34:02.954Z,66.38
2023-04-15T01:37:10.903Z,66.83
2023-04-15T01:40:00.180Z,67.17
2023-04-15T01:42:49.588Z,67.30
2023-04-15T01:45:40.232Z,67.27
2023-04-15T01:48:29.494Z,67.19
2023-04-15T01:51:19.157Z,68.02
2023-04-15T01:54:08.455Z,67.26
2023-04-15T01:56:57.966Z,68.28
2023-04-15T01:59:47.397Z,68.16
2023-04-15T02:02:39.136Z,68.11
2023-04-15T02:05:28.497Z,68.82
2023-04-15T02:08:17.854Z,68.44
2023-04-15T02:11:07.203Z,68.39
2023-04-15T02:13:57.030Z,68.83
2023-04-15T02:16:48.186Z,69.06
2023-04-15T02:19:40.631Z,68.98
2023-04-15T02:22:30.403Z,69.39
2023-04-15T02:25:20.369Z,68.73
2023-04-15T02:28:09.657Z,68.13
2023-04-15T02:30:59.929Z,69.76
2023-04-15T02:33:49.125Z,69.08
2023-04-15T02:36:40.810Z,69.01
2023-04-15T02:39:29.996Z,69.05
2023-04-15T02:42:19.276Z,69.06
2023-04-15T02:45:12.214Z,69.85
2023-04-15T02:48:06.307Z,69.29
2023-04-15T02:50:55.878Z,69.87
2023-04-15T02:53:46.590Z,69.47
2023-04-15T02:56:35.972Z,70.38
2023-04-15T02:59:25.185Z,70.39
2023-04-15T03:02:14.499Z,70.43
2023-04-15T03:05:04.247Z,70.67
2023-04-15T03:07:53.576Z,69.95
2023-04-15T03:10:44.772Z,70.84
2023-04-15T03:13:34.030Z,70.66
2023-04-15T03:16:31.042Z,71.00
2023-04-15T03:19:21.097Z,70.82
2023-04-15T03:22:10.461Z,70.79
2023-04-15T03:24:59.886Z,71.16
2023-04-15T03:27:51.199Z,70.55
2023-04-15T03:30:40.421Z,71.50
2023-04-15T03:33:29.617Z,70.94
2023-04-15T03:36:18.943Z,71.66
2023-04-15T03:39:08.343Z,71.56
2023-04-15T03:41:57.936Z,71.96
2023-04-15T03:44:48.570Z,72.02
2023-04-15T03:47:37.940Z,72.22
2023-04-15T03:50:27.870Z,72.60
2023-04-15T03:53:17.253Z,72.71
2023-04-15T03:56:07.220Z,72.48
2023-04-15T03:58:56.410Z,72.93
2023-04-15T04:01:47.302Z,73.15
2023-04-15T04:04:36.641Z,72.81
2023-04-15T04:07:26.222Z,72.85
2023-04-15T04:10:15.403Z,73.47
2023-04-15T04:13:04.840Z,72.79
2023-04-15T04:15:54.006Z,73.09
2023-04-15T04:18:44.663Z,73.29
2023-04-15T04:21:34.320Z,73.50
2023-04-15T04:24:23.798Z,74.02
2023-04-15T04:27:12.969Z,73.70
2023-04-15T04:30:02.267Z,73.97
2023-04-15T04:32:51.947Z,74.24
2023-04-15T04:35:42.708Z,74.13
2023-04-15T04:38:31.913Z,73.76
2023-04-15T04:41:21.500Z,74.17
2023-04-15T04:44:10.722Z,73.72
2023-04-15T04:46:59.922Z,73.58
2023-04-15T04:49:49.064Z,73.46
2023-04-15T04:52:40.761Z,74.14
2023-04-15T04:55:30.286Z,74.89
2023-04-15T04:58:19.537Z,74.37
2023-04-15T05:01:09.210Z,74.48
2023-04-15T05:03:58.530Z,74.50
2023-04-15T05:06:47.820Z,74.49
2023-04-15T05:09:38.644Z,74.35
2023-04-15T05:12:27.937Z,74.45
2023-04-15T05:15:17.127Z,74.10
2023-04-15T05:18:06.673Z,74.44
2023-04-15T05:20:55.945Z,75.36
2023-04-15T05:23:45.595Z,74.81
2023-04-15T05:26:36.218Z,74.89
2023-04-15T05:29:25.505Z,74.96
2023-04-15T05:32:14.698Z,75.73
2023-04-15T05:35:03.853Z,75.98
2023-04-15T05:37:53.033Z,75.86
2023-04-15T05:40:42.207Z,75.92
2023-04-15T05:43:32.950Z,75.68
2023-04-15T05:46:22.734Z,75.66
2023-04-15T05:49:12.142Z,75.96
2023-04-15T05:52:01.451Z,76.09
2023-04-15T05:54:50.749Z,76.01
2023-04-15T05:57:40.171Z,75.87
2023-04-15T06:00:31.332Z,76.57
2023-04-15T06:03:20.629Z,76.62
2023-04-15T06:06:10.026Z,76.36
2023-04-15T06:08:59.291Z,76.63
2023-04-15T06:11:48.608Z,77.60
2023-04-15T06:14:37.774Z,76.63
2023-04-15T06:17:28.517Z,76.77
2023-04-15T06:20:17.964Z,76.58
2023-04-15T06:23:07.341Z,77.23
2023-04-15T06:25:56.498Z,77.27
2023-04-15T06:28:45.949Z,76.34
2023-04-15T06:31:35.246Z,76.86
2023-04-15T06:34:25.931Z,76.84
2023-04-15T06:37:16.457Z,77.17
2023-04-15T06:40:07.214Z,76.92
2023-04-15T06:42:57.044Z,76.39
2023-04-15T06:45:46.563Z,77.28
2023-04-15T06:48:35.901Z,76.92
2023-04-15T06:51:27.185Z,76.55
2023-04-15T06:54:16.461Z,76.56
2023-04-15T06:57:05.752Z,76.64
2023-04-15T06:59:55.036Z,76.41
2023-04-15T07:02:44.374Z,76.53
2023-04-15T07:05:33.626Z,76.29
2023-04-15T07:08:25.700Z,76.26
2023-04-15T07:11:15.201Z,76.28
2023-04-15T07:14:04.913Z,76.72
2023-04-15T07:16:54.211Z,76.66
2023-04-15T07:19:45.606Z,77.14
2023-04-15T07:22:35.299Z,78.66
2023-04-15T07:25:26.550Z,74.60
2023-04-15T07:28:15.755Z,76.43
2023-04-15T07:31:05.400Z,75.66
2023-04-15T07:33:54.701Z,75.46
2023-04-15T07:36:44.302Z,71.88
2023-04-15T07:39:33.611Z,71.62
2023-04-15T07:42:24.480Z,70.14
2023-04-15T07:45:14.015Z,66.84
2023-04-15T07:48:03.482Z,70.34
2023-04-15T07:50:52.935Z,71.83
2023-04-15T07:53:42.453Z,71.21
2023-04-15T07:56:32.803Z,69.20
2023-04-15T07:59:23.462Z,57.86
2023-04-15T08:02:13.972Z,62.86
2023-04-15T08:05:05.951Z,63.29
2023-04-15T08:07:55.355Z,61.63
2023-04-15T08:10:44.894Z,58.41
2023-04-15T08:13:34.475Z,60.32
2023-04-15T08:16:28.091Z,52.05
2023-04-15T08:19:17.394Z,55.88
2023-04-15T08:22:06.711Z,55.26
2023-04-15T08:25:05.783Z,57.64
2023-04-15T08:27:58.123Z,53.62
2023-04-15T08:30:47.498Z,55.17
2023-04-15T08:33:38.283Z,56.28
2023-04-15T08:36:28.568Z,54.82
2023-04-15T08:39:17.836Z,54.04
2023-04-15T08:42:13.347Z,51.46
2023-04-15T08:45:05.294Z,49.69
2023-04-15T08:47:58.704Z,49.29
2023-04-15T08:50:50.195Z,47.98
2023-04-15T08:53:39.940Z,47.24
2023-04-15T08:56:32.723Z,42.60
2023-04-15T08:59:22.656Z,40.90
2023-04-15T09:02:13.280Z,45.54
2023-04-15T09:05:05.177Z,43.49
2023-04-15T09:07:55.881Z,43.31
2023-04-15T09:10:45.220Z,42.71
2023-04-15T09:13:34.535Z,42.38
2023-04-15T09:16:24.128Z,42.73
2023-04-15T09:19:24.360Z,42.00
2023-04-15T09:22:13.896Z,42.55
2023-04-15T09:25:05.105Z,42.27
2023-04-15T09:27:56.409Z,41.37
2023-04-15T09:30:49.151Z,40.61
2023-04-15T09:33:57.670Z,39.02
2023-04-15T09:36:58.038Z,38.57
2023-04-15T09:39:50.249Z,39.39
2023-04-15T09:42:56.966Z,35.70
2023-04-15T09:45:51.137Z,36.28
2023-04-15T09:48:40.478Z,36.92
2023-04-15T09:51:36.732Z,35.88
2023-04-15T09:54:26.081Z,36.53
2023-04-15T09:57:15.879Z,35.90
2023-04-15T10:00:08.933Z,34.16
2023-04-15T10:02:58.754Z,35.08
2023-04-15T10:05:51.200Z,33.66
2023-04-15T10:08:41.833Z,33.85
2023-04-15T10:11:31.993Z,33.92
2023-04-15T10:14:22.111Z,33.41
2023-04-15T10:17:13.764Z,32.44
2023-04-15T10:20:03.963Z,32.68
2023-04-15T10:22:54.396Z,32.85
2023-04-15T10:25:44.329Z,32.22
2023-04-15T10:28:33.721Z,31.80
2023-04-15T10:31:24.215Z,32.02
2023-04-15T10:34:16.158Z,31.46
2023-04-15T10:37:06.823Z,31.87
2023-04-15T10:39:56.030Z,31.37
2023-04-15T10:42:45.356Z,30.85
2023-04-15T10:45:37.870Z,30.81
2023-04-15T10:48:27.223Z,30.45
2023-04-15T10:51:18.591Z,30.70
2023-04-15T10:54:15.206Z,30.91
2023-04-15T10:57:24.435Z,30.37
2023-04-15T11:00:15.976Z,30.43
2023-04-15T11:03:09.680Z,31.17
2023-04-15T11:05:59.147Z,31.38
2023-04-15T11:09:09.704Z,31.75
2023-04-15T11:12:09.821Z,31.53
2023-04-15T11:15:01.754Z,32.46
2023-04-15T11:17:51.083Z,32.13
2023-04-15T11:20:45.087Z,32.12
2023-04-15T11:23:44.331Z,32.58
2023-04-15T11:26:35.404Z,32.40
2023-04-15T11:29:29.889Z,32.09
2023-04-15T11:32:19.176Z,32.61
2023-04-15T11:35:09.359Z,31.68
2023-04-15T11:37:59.083Z,32.26
2023-04-15T11:40:48.669Z,32.10
2023-04-15T11:43:39.476Z,32.51
2023-04-15T11:46:32.172Z,33.20
2023-04-15T11:49:33.996Z,33.98
2023-04-15T11:52:26.012Z,34.71
2023-04-15T11:55:15.591Z,35.15
2023-04-15T11:58:10.595Z,35.08
2023-04-15T12:01:03.049Z,34.85
2023-04-15T12:03:52.469Z,34.50
2023-04-15T12:06:42.229Z,34.80
2023-04-15T12:09:32.428Z,34.81
2023-04-15T12:12:22.072Z,35.30
2023-04-15T12:15:12.032Z,35.63
2023-04-15T12:18:02.763Z,36.17
2023-04-15T12:20:55.246Z,36.55
2023-04-15T12:23:50.882Z,37.41
2023-04-15T12:26:45.857Z,37.75
2023-04-15T12:29:37.296Z,38.37
2023-04-15T12:32:26.616Z,38.61
2023-04-15T12:35:19.410Z,38.75
2023-04-15T12:38:10.928Z,38.88
2023-04-15T12:41:00.402Z,39.07
2023-04-15T12:43:49.708Z,39.40
2023-04-15T12:46:39.893Z,39.57
2023-04-15T12:49:29.397Z,39.46
2023-04-15T12:52:20.099Z,39.28
2023-04-15T12:55:10.302Z,39.73
2023-04-15T12:57:59.646Z,39.62
2023-04-15T13:00:49.070Z,40.14
2023-04-15T13:03:41.304Z,40.54
2023-04-15T13:06:32.789Z,40.77
2023-04-15T13:09:26.610Z,41.16
2023-04-15T13:12:16.506Z,41.32
2023-04-15T13:15:06.806Z,41.45
2023-04-15T13:17:56.141Z,41.11
2023-04-15T13:20:45.577Z,41.20
2023-04-15T13:23:34.955Z,41.23
2023-04-15T13:26:25.766Z,41.42
2023-04-15T13:29:15.055Z,41.39
2023-04-15T13:32:04.591Z,41.15
2023-04-15T13:34:54.893Z,41.01
2023-04-15T13:37:44.163Z,40.66
2023-04-15T13:40:33.472Z,40.75
2023-04-15T13:43:24.166Z,40.43
2023-04-15T13:46:13.837Z,40.18
2023-04-15T13:49:03.332Z,40.03
2023-04-15T13:51:53.092Z,40.14
2023-04-15T13:54:42.481Z,39.45
2023-04-15T13:57:32.603Z,38.59
2023-04-15T14:00:23.623Z,39.24
2023-04-15T14:03:12.984Z,39.18
2023-04-15T14:06:02.480Z,39.39
2023-04-15T14:08:51.854Z,38.63
2023-04-15T14:11:41.274Z,38.55
2023-04-15T14:14:30.642Z,38.29
2023-04-15T14:17:21.478Z,38.51
2023-04-15T14:20:11.838Z,38.99
2023-04-15T14:23:01.108Z,39.05
2023-04-15T14:25:51.956Z,39.37
2023-04-15T14:28:41.314Z,39.54
2023-04-15T14:31:33.746Z,39.35
2023-04-15T14:34:25.571Z,38.85
2023-04-15T14:37:14.844Z,39.31
2023-04-15T14:40:04.258Z,39.20
2023-04-15T14:42:53.509Z,39.46
2023-04-15T14:45:44.603Z,38.30
2023-04-15T14:48:34.862Z,37.90
2023-04-15T14:51:26.628Z,37.69
2023-04-15T14:54:15.863Z,37.99
2023-04-15T14:57:05.429Z,37.41
2023-04-15T14:59:56.770Z,37.98
2023-04-15T15:02:47.642Z,38.03
2023-04-15T15:05:37.279Z,38.07
2023-04-15T15:08:28.167Z,37.54
2023-04-15T15:11:17.929Z,38.13
2023-04-15T15:14:07.316Z,38.29
2023-04-15T15:16:56.633Z,38.65
2023-04-15T15:19:46.453Z,39.03
2023-04-15T15:22:35.723Z,39.23
2023-04-15T15:25:26.614Z,39.50
2023-04-15T15:28:15.949Z,39.64
2023-04-15T15:31:06.117Z,39.29
2023-04-15T15:33:55.523Z,39.48
2023-04-15T15:36:44.800Z,39.05
2023-04-15T15:39:33.995Z,40.09
2023-04-15T15:42:24.967Z,40.53
2023-04-15T15:45:14.340Z,41.06
2023-04-15T15:48:04.050Z,41.40
2023-04-15T15:50:54.328Z,41.55
2023-04-15T15:53:44.799Z,41.75
2023-04-15T15:56:35.145Z,42.28
2023-04-15T15:59:26.114Z,42.44
2023-04-15T16:02:15.769Z,42.67
2023-04-15T16:05:05.688Z,42.79
2023-04-15T16:07:54.943Z,43.24
2023-04-15T16:10:45.839Z,43.47
2023-04-15T16:13:35.082Z,43.75
2023-04-15T16:16:25.713Z,43.73
2023-04-15T16:19:15.350Z,43.96
2023-04-15T16:22:04.701Z,43.98
2023-04-15T16:24:54.549Z,42.94
2023-04-15T16:27:58.908Z,42.82
2023-04-15T16:30:52.592Z,43.14
2023-04-15T16:33:43.415Z,43.00
2023-04-15T16:36:32.881Z,43.27
2023-04-15T16:39:24.039Z,43.50
2023-04-15T16:42:13.637Z,43.67
2023-04-15T16:45:02.925Z,43.56
2023-04-15T16:47:52.402Z,43.01
2023-04-15T16:50:43.028Z,43.03
2023-04-15T16:53:32.317Z,42.81
2023-04-15T16:56:22.201Z,41.69
2023-04-15T16:59:11.429Z,41.39
2023-04-15T17:02:02.570Z,41.11
2023-04-15T17:04:51.873Z,41.41
2023-04-15T17:07:42.629Z,40.88
2023-04-15T17:10:32.736Z,40.27
2023-04-15T17:13:22.150Z,40.38
2023-04-15T17:16:11.787Z,40.63
2023-04-15T17:19:05.530Z,41.10
2023-04-15T17:22:03.158Z,41.11
2023-04-15T17:24:54.845Z,42.26
2023-04-15T17:27:45.032Z,42.10
2023-04-15T17:30:39.567Z,42.00
2023-04-15T17:33:58.881Z,42.47
2023-04-15T17:37:18.827Z,42.82
2023-04-15T17:40:29.426Z,43.09
2023-04-15T17:43:39.041Z,42.64
2023-04-15T17:46:48.527Z,42.47
2023-04-15T17:49:57.716Z,42.50
2023-04-15T17:53:06.983Z,42.52
2023-04-15T17:56:17.517Z,43.22
2023-04-15T17:59:26.810Z,42.90
2023-04-15T18:02:37.429Z,43.17
2023-04-15T18:05:46.972Z,43.37
2023-04-15T18:08:56.341Z,43.27
2023-04-15T18:12:09.047Z,43.23
2023-04-15T18:15:18.733Z,43.45
2023-04-15T18:18:29.242Z,43.83
2023-04-15T18:21:22.656Z,43.62
2023-04-15T18:24:11.909Z,43.02
2023-04-15T18:27:01.756Z,42.77
2023-04-15T18:29:52.692Z,43.04
2023-04-15T18:32:43.088Z,43.13
2023-04-15T18:35:32.382Z,43.92
2023-04-15T18:38:21.740Z,44.21
2023-04-15T18:41:11.180Z,44.22
2023-04-15T18:44:00.395Z,45.12
2023-04-15T18:46:51.777Z,45.86
2023-04-15T18:49:41.797Z,46.91
2023-04-15T18:52:33.971Z,46.95
2023-04-15T18:55:24.152Z,47.98
2023-04-15T18:58:14.067Z,48.49
2023-04-15T19:01:03.375Z,49.01
2023-04-15T19:03:54.043Z,49.31
2023-04-15T19:06:43.375Z,50.12
2023-04-15T19:09:32.894Z,50.93
2023-04-15T19:12:22.130Z,52.73
2023-04-15T19:15:12.232Z,54.03
2023-04-15T19:18:01.858Z,54.49
2023-04-15T19:20:52.916Z,54.57
2023-04-15T19:23:43.913Z,54.48
2023-04-15T19:26:33.135Z,55.07
2023-04-15T19:29:23.023Z,55.21
2023-04-15T19:32:14.113Z,55.32
2023-04-15T19:35:03.401Z,56.49
2023-04-15T19:37:54.088Z,56.75
2023-04-15T19:40:43.326Z,57.95
2023-04-15T19:43:33.702Z,59.91
2023-04-15T19:46:23.064Z,60.50
2023-04-15T19:49:12.423Z,61.69
2023-04-15T19:52:01.927Z,63.71
2023-04-15T19:54:52.560Z,64.74
2023-04-15T19:57:41.862Z,64.29
2023-04-15T20:00:31.760Z,66.75
2023-04-15T20:03:21.162Z,65.88
2023-04-15T20:06:10.887Z,65.95
2023-04-15T20:09:00.233Z,66.83
2023-04-15T20:12:06.100Z,67.09
2023-04-15T20:15:00.310Z,66.97
2023-04-15T20:17:49.647Z,67.91
2023-04-15T20:20:41.444Z,69.31
2023-04-15T20:23:30.671Z,67.81
2023-04-15T20:26:20.797Z,69.52
2023-04-15T20:29:11.573Z,68.63
2023-04-15T20:32:00.814Z,69.07
2023-04-15T20:34:50.067Z,69.76
2023-04-15T20:37:40.533Z,70.81
2023-04-15T20:40:30.049Z,70.31
2023-04-15T20:43:19.330Z,70.99
2023-04-15T20:46:20.190Z,71.94
2023-04-15T20:49:10.554Z,72.05
2023-04-15T20:51:59.819Z,72.03
2023-04-15T20:54:49.035Z,72.91
2023-04-15T20:57:38.328Z,72.75
2023-04-15T21:00:27.676Z,72.36
2023-04-15T21:03:18.449Z,72.67
2023-04-15T21:06:07.786Z,72.44
2023-04-15T21:08:57.036Z,73.55
2023-04-15T21:12:00.620Z,74.07
2023-04-15T21:14:51.975Z,74.10
2023-04-15T21:17:41.798Z,73.84
2023-04-15T21:20:33.003Z,74.21
2023-04-15T21:23:22.306Z,74.70
2023-04-15T21:26:11.579Z,74.76
2023-04-15T21:29:00.966Z,75.56
2023-04-15T21:31:50.538Z,75.51
2023-04-15T21:34:40.002Z,75.75
2023-04-15T21:37:30.817Z,75.99
2023-04-15T21:40:20.394Z,75.57
2023-04-15T21:43:09.692Z,75.97
2023-04-15T21:46:22.109Z,76.05
2023-04-15T21:49:08.593Z,76.67
2023-04-15T21:52:01.323Z,77.03
2023-04-15T21:54:52.070Z,77.36
2023-04-15T21:57:41.294Z,77.30
2023-04-15T22:00:30.627Z,77.31
2023-04-15T22:03:20.147Z,77.11
2023-04-15T22:06:09.718Z,76.89
2023-04-15T22:08:59.074Z,76.48
2023-04-15T22:11:49.946Z,76.51
2023-04-15T22:14:39.190Z,76.43
2023-04-15T22:17:28.844Z,76.79
2023-04-15T22:20:18.266Z,76.55
2023-04-15T22:23:09.881Z,76.28
2023-04-15T22:26:00.555Z,76.32
2023-04-15T22:28:51.546Z,76.26
2023-04-15T22:31:40.982Z,76.54
2023-04-15T22:34:30.285Z,77.21
2023-04-15T22:37:19.486Z,76.75
2023-04-15T22:40:10.444Z,76.86
2023-04-15T22:42:59.756Z,77.18
2023-04-15T22:45:53.205Z,77.13
2023-04-15T22:48:43.019Z,77.65
2023-04-15T22:51:32.996Z,77.62
2023-04-15T22:54:22.284Z,77.40
2023-04-15T22:57:11.529Z,78.01
2023-04-15T23:00:00.804Z,78.00
2023-04-15T23:02:51.596Z,77.87
2023-04-15T23:05:41.361Z,77.70
2023-04-15T23:08:30.800Z,78.52
2023-04-15T23:11:20.052Z,78.88
2023-04-15T23:14:10.329Z,78.87
2023-04-15T23:17:00.486Z,79.25
2023-04-15T23:19:51.834Z,79.16
2023-04-15T23:22:42.102Z,78.91
2023-04-15T23:25:31.360Z,78.98
2023-04-15T23:28:20.987Z,78.80
2023-04-15T23:31:10.235Z,78.58
2023-04-15T23:33:59.623Z,78.98
2023-04-15T23:36:50.288Z,78.98
2023-04-15T23:39:39.528Z,78.44
2023-04-15T23:42:28.897Z,78.52
2023-04-15T23:45:19.398Z,78.16
2023-04-15T23:48:09.149Z,78.54
2023-04-15T23:50:58.507Z,77.89
2023-04-15T23:53:50.157Z,78.09
2023-04-15T23:56:39.416Z,78.46
2023-04-15T23:59:28.679Z,78.79
